sensor_id;sensor_type;location;lat;lon;timestamp;pressure;altitude;pressure_sealevel;temperature;humidity
30682;BME280;17439;48.092;11.842;2023-05-20T00:02:05;95394.78;;;15.69;63.05
30682;BME280;17439;48.092;11.842;2023-05-20T00:04:32;95398.78;;;15.72;62.92
30682;BME280;17439;48.092;11.842;2023-05-20T00:06:58;95390.66;;;15.75;63.18
30682;BME280;17439;48.092;11.842;2023-05-20T00:09:25;95388.41;;;15.77;62.89
30682;BME280;17439;48.092;11.842;2023-05-20T00:11:52;95392.41;;;15.80;63.00
30682;BME280;17439;48.092;11.842;2023-05-20T00:14:18;95381.91;;;15.82;62.78
30682;BME280;17439;48.092;11.842;2023-05-20T00:16:45;95385.91;;;15.85;62.83
30682;BME280;17439;48.092;11.842;2023-05-20T00:19:12;95383.59;;;15.87;62.80
30682;BME280;17439;48.092;11.842;2023-05-20T00:21:39;95381.31;;;15.89;62.71
30682;BME280;17439;48.092;11.842;2023-05-20T00:24:05;95381.78;;;15.91;62.58
30682;BME280;17439;48.092;11.842;2023-05-20T00:26:32;95382.22;;;15.93;62.27
30682;BME280;17439;48.092;11.842;2023-05-20T00:28:59;95378.72;;;15.92;62.29
30682;BME280;17439;48.092;11.842;2023-05-20T00:31:25;95390.78;;;15.91;62.28
30682;BME280;17439;48.092;11.842;2023-05-20T00:33:52;95383.69;;;15.90;62.45
30682;BME280;17439;48.092;11.842;2023-05-20T00:36:19;95380.97;;;15.90;62.46
30682;BME280;17439;48.092;11.842;2023-05-20T00:38:46;95373.94;;;15.89;62.62
30682;BME280;17439;48.092;11.842;2023-05-20T00:41:12;95379.41;;;15.89;62.67
30682;BME280;17439;48.092;11.842;2023-05-20T00:43:39;95378.59;;;15.89;62.79
30682;BME280;17439;48.092;11.842;2023-05-20T00:46:06;95375.06;;;15.88;62.94
30682;BME280;17439;48.092;11.842;2023-05-20T00:48:43;95385.66;;;15.90;63.41
30682;BME280;17439;48.092;11.842;2023-05-20T00:51:10;95384.06;;;15.89;63.04
30682;BME280;17439;48.092;11.842;2023-05-20T00:53:38;95381.78;;;15.91;63.02
30682;BME280;17439;48.092;11.842;2023-05-20T00:56:07;95388.38;;;15.90;63.00
30682;BME280;17439;48.092;11.842;2023-05-20T00:58:35;95386.09;;;15.92;63.21
30682;BME280;17439;48.092;11.842;2023-05-20T01:01:03;95383.00;;;15.93;63.24
30682;BME280;17439;48.092;11.842;2023-05-20T01:03:31;95381.44;;;15.92;63.03
30682;BME280;17439;48.092;11.842;2023-05-20T01:05:59;95381.22;;;15.85;62.86
30682;BME280;17439;48.092;11.842;2023-05-20T01:08:26;95378.72;;;15.92;62.80
30682;BME280;17439;48.092;11.842;2023-05-20T01:11:05;95377.09;;;15.91;62.78
30682;BME280;17439;48.092;11.842;2023-05-20T01:13:44;95379.06;;;15.91;62.49
30682;BME280;17439;48.092;11.842;2023-05-20T01:16:13;95374.38;;;15.91;62.70
30682;BME280;17439;48.092;11.842;2023-05-20T01:18:44;95364.56;;;15.90;62.42
30682;BME280;17439;48.092;11.842;2023-05-20T01:21:12;95361.41;;;15.88;62.60
30682;BME280;17439;48.092;11.842;2023-05-20T01:23:40;95367.91;;;15.84;62.65
30682;BME280;17439;48.092;11.842;2023-05-20T01:26:08;95360.84;;;15.83;62.60
30682;BME280;17439;48.092;11.842;2023-05-20T01:28:35;95361.91;;;15.78;62.89
30682;BME280;17439;48.092;11.842;2023-05-20T01:31:04;95361.09;;;15.77;62.67
30682;BME280;17439;48.092;11.842;2023-05-20T01:33:34;95360.28;;;15.77;62.71
30682;BME280;17439;48.092;11.842;2023-05-20T01:36:02;95357.88;;;15.75;62.72
30682;BME280;17439;48.092;11.842;2023-05-20T01:38:29;95354.69;;;15.73;62.84
30682;BME280;17439;48.092;11.842;2023-05-20T01:40:57;95354.22;;;15.71;62.94
30682;BME280;17439;48.092;11.842;2023-05-20T01:43:25;95367.09;;;15.71;62.75
30682;BME280;17439;48.092;11.842;2023-05-20T01:45:52;95358.91;;;15.71;63.03
30682;BME280;17439;48.092;11.842;2023-05-20T01:48:20;95357.31;;;15.70;63.02
30682;BME280;17439;48.092;11.842;2023-05-20T01:50:46;95353.44;;;15.71;62.84
30682;BME280;17439;48.092;11.842;2023-05-20T01:53:15;95353.44;;;15.71;62.65
30682;BME280;17439;48.092;11.842;2023-05-20T01:55:42;95346.38;;;15.70;62.66
30682;BME280;17439;48.092;11.842;2023-05-20T01:58:08;95361.19;;;15.69;62.68
30682;BME280;17439;48.092;11.842;2023-05-20T02:00:35;95348.66;;;15.68;62.65
30682;BME280;17439;48.092;11.842;2023-05-20T02:03:02;95353.00;;;15.69;62.33
30682;BME280;17439;48.092;11.842;2023-05-20T02:05:29;95345.94;;;15.68;62.45
30682;BME280;17439;48.092;11.842;2023-05-20T02:07:56;95353.22;;;15.64;62.41
30682;BME280;17439;48.092;11.842;2023-05-20T02:10:23;95349.59;;;15.59;62.66
30682;BME280;17439;48.092;11.842;2023-05-20T02:12:50;95350.63;;;15.55;62.66
30682;BME280;17439;48.092;11.842;2023-05-20T02:15:17;95353.72;;;15.53;62.88
30682;BME280;17439;48.092;11.842;2023-05-20T02:17:45;95352.13;;;15.52;62.86
30682;BME280;17439;48.092;11.842;2023-05-20T02:20:12;95350.53;;;15.51;63.09
30682;BME280;17439;48.092;11.842;2023-05-20T02:22:39;95348.94;;;15.50;63.01
30682;BME280;17439;48.092;11.842;2023-05-20T02:25:06;95357.56;;;15.52;62.83
30682;BME280;17439;48.092;11.842;2023-05-20T02:27:33;95350.06;;;15.49;62.92
30682;BME280;17439;48.092;11.842;2023-05-20T02:30:00;95357.03;;;15.47;63.30
30682;BME280;17439;48.092;11.842;2023-05-20T02:32:27;95365.56;;;15.45;63.39
30682;BME280;17439;48.092;11.842;2023-05-20T02:34:54;95359.66;;;15.43;63.67
30682;BME280;17439;48.092;11.842;2023-05-20T02:37:21;95353.38;;;15.42;63.64
30682;BME280;17439;48.092;11.842;2023-05-20T02:39:48;95347.13;;;15.42;63.92
30682;BME280;17439;48.092;11.842;2023-05-20T02:42:14;95348.75;;;15.43;64.03
30682;BME280;17439;48.092;11.842;2023-05-20T02:44:42;95341.34;;;15.44;63.98
30682;BME280;17439;48.092;11.842;2023-05-20T02:47:09;95337.47;;;15.45;64.20
30682;BME280;17439;48.092;11.842;2023-05-20T02:49:35;95334.38;;;15.46;64.03
30682;BME280;17439;48.092;11.842;2023-05-20T02:52:02;95337.09;;;15.46;64.13
30682;BME280;17439;48.092;11.842;2023-05-20T02:54:29;95335.19;;;15.47;64.08
30682;BME280;17439;48.092;11.842;2023-05-20T02:56:56;95332.00;;;15.45;64.51
30682;BME280;17439;48.092;11.842;2023-05-20T02:59:23;95335.97;;;15.47;64.42
30682;BME280;17439;48.092;11.842;2023-05-20T03:01:49;95341.44;;;15.47;64.46
30682;BME280;17439;48.092;11.842;2023-05-20T03:04:16;95349.28;;;15.49;64.13
30682;BME280;17439;48.092;11.842;2023-05-20T03:06:44;95343.47;;;15.50;63.95
30682;BME280;17439;48.092;11.842;2023-05-20T03:09:11;95349.28;;;15.49;64.06
30682;BME280;17439;48.092;11.842;2023-05-20T03:11:38;95347.34;;;15.49;63.82
30682;BME280;17439;48.092;11.842;2023-05-20T03:14:05;95348.16;;;15.50;63.93
30682;BME280;17439;48.092;11.842;2023-05-20T03:16:32;95352.00;;;15.49;64.05
30682;BME280;17439;48.092;11.842;2023-05-20T03:18:58;95348.50;;;15.48;64.14
30682;BME280;17439;48.092;11.842;2023-05-20T03:21:25;95344.94;;;15.48;64.27
30682;BME280;17439;48.092;11.842;2023-05-20T03:23:52;95343.81;;;15.49;64.32
30682;BME280;17439;48.092;11.842;2023-05-20T03:26:19;95348.16;;;15.50;64.39
30682;BME280;17439;48.092;11.842;2023-05-20T03:28:46;95350.06;;;15.49;64.34
30682;BME280;17439;48.092;11.842;2023-05-20T03:31:12;95345.06;;;15.51;64.27
30682;BME280;17439;48.092;11.842;2023-05-20T03:33:39;95351.66;;;15.50;64.45
30682;BME280;17439;48.092;11.842;2023-05-20T03:36:06;95343.13;;;15.52;64.64
30682;BME280;17439;48.092;11.842;2023-05-20T03:38:33;95341.19;;;15.52;64.67
30682;BME280;17439;48.092;11.842;2023-05-20T03:41:00;95341.19;;;15.52;64.65
30682;BME280;17439;48.092;11.842;2023-05-20T03:43:27;95342.78;;;15.53;64.86
30682;BME280;17439;48.092;11.842;2023-05-20T03:45:54;95337.31;;;15.53;64.82
30682;BME280;17439;48.092;11.842;2023-05-20T03:48:21;95343.56;;;15.54;64.78
30682;BME280;17439;48.092;11.842;2023-05-20T03:50:48;95351.44;;;15.55;64.88
30682;BME280;17439;48.092;11.842;2023-05-20T03:53:15;95355.41;;;15.58;64.75
30682;BME280;17439;48.092;11.842;2023-05-20T03:55:41;95348.47;;;15.60;64.82
30682;BME280;17439;48.092;11.842;2023-05-20T03:58:12;95351.66;;;15.63;64.67
30682;BME280;17439;48.092;11.842;2023-05-20T04:00:39;95353.22;;;15.64;64.39
30682;BME280;17439;48.092;11.842;2023-05-20T04:03:06;95349.81;;;15.67;64.10
30682;BME280;17439;48.092;11.842;2023-05-20T04:05:34;95354.81;;;15.65;63.94
30682;BME280;17439;48.092;11.842;2023-05-20T04:08:04;95355.16;;;15.63;64.09
30682;BME280;17439;48.092;11.842;2023-05-20T04:10:31;95352.34;;;15.59;64.32
30682;BME280;17439;48.092;11.842;2023-05-20T04:12:58;95350.75;;;15.58;64.53
30682;BME280;17439;48.092;11.842;2023-05-20T04:15:25;95349.16;;;15.57;64.48
30682;BME280;17439;48.092;11.842;2023-05-20T04:17:54;95339.38;;;15.56;64.55
30682;BME280;17439;48.092;11.842;2023-05-20T04:20:21;95349.50;;;15.56;64.70
30682;BME280;17439;48.092;11.842;2023-05-20T04:22:49;95358.94;;;15.58;64.70
30682;BME280;17439;48.092;11.842;2023-05-20T04:25:16;95351.91;;;15.57;65.09
30682;BME280;17439;48.092;11.842;2023-05-20T04:27:42;95346.88;;;15.59;65.01
30682;BME280;17439;48.092;11.842;2023-05-20T04:30:10;95348.47;;;15.60;64.94
30682;BME280;17439;48.092;11.842;2023-05-20T04:32:39;95353.94;;;15.60;64.99
30682;BME280;17439;48.092;11.842;2023-05-20T04:35:06;95340.72;;;15.63;65.19
30682;BME280;17439;48.092;11.842;2023-05-20T04:37:33;95339.56;;;15.64;64.87
30682;BME280;17439;48.092;11.842;2023-05-20T04:40:00;95341.16;;;15.65;64.93
30682;BME280;17439;48.092;11.842;2023-05-20T04:42:27;95336.13;;;15.67;64.98
30682;BME280;17439;48.092;11.842;2023-05-20T04:44:54;95345.50;;;15.66;65.20
30682;BME280;17439;48.092;11.842;2023-05-20T04:47:21;95343.19;;;15.68;65.09
30682;BME280;17439;48.092;11.842;2023-05-20T04:49:50;95354.13;;;15.68;65.12
30682;BME280;17439;48.092;11.842;2023-05-20T04:52:17;95352.53;;;15.67;65.38
30682;BME280;17439;48.092;11.842;2023-05-20T04:54:44;95352.53;;;15.67;65.50
30682;BME280;17439;48.092;11.842;2023-05-20T04:57:13;95346.72;;;15.68;65.38
30682;BME280;17439;48.092;11.842;2023-05-20T04:59:39;95357.66;;;15.68;65.68
30682;BME280;17439;48.092;11.842;2023-05-20T05:02:06;95350.28;;;15.69;65.56
30682;BME280;17439;48.092;11.842;2023-05-20T05:04:33;95348.41;;;15.73;65.34
30682;BME280;17439;48.092;11.842;2023-05-20T05:06:59;95334.75;;;15.73;65.58
30682;BME280;17439;48.092;11.842;2023-05-20T05:09:26;95336.34;;;15.74;65.42
30682;BME280;17439;48.092;11.842;2023-05-20T05:11:53;95337.97;;;15.75;65.71
30682;BME280;17439;48.092;11.842;2023-05-20T05:14:20;95334.56;;;15.78;65.44
30682;BME280;17439;48.092;11.842;2023-05-20T05:16:46;95343.66;;;15.82;65.14
30682;BME280;17439;48.092;11.842;2023-05-20T05:19:14;95342.03;;;15.81;65.12
30682;BME280;17439;48.092;11.842;2023-05-20T05:21:41;95339.78;;;15.83;65.10
30682;BME280;17439;48.092;11.842;2023-05-20T05:24:08;95334.75;;;15.85;65.10
30682;BME280;17439;48.092;11.842;2023-05-20T05:26:35;95334.84;;;15.89;64.89
30682;BME280;17439;48.092;11.842;2023-05-20T05:29:02;95333.72;;;15.90;64.57
30682;BME280;17439;48.092;11.842;2023-05-20T05:31:28;95334.50;;;15.90;64.69
30682;BME280;17439;48.092;11.842;2023-05-20T05:33:55;95332.22;;;15.92;64.51
30682;BME280;17439;48.092;11.842;2023-05-20T05:36:23;95344.75;;;15.93;64.66
30682;BME280;17439;48.092;11.842;2023-05-20T05:38:49;95329.94;;;15.94;64.85
30682;BME280;17439;48.092;11.842;2023-05-20T05:41:16;95336.28;;;15.99;64.81
30682;BME280;17439;48.092;11.842;2023-05-20T05:43:43;95333.09;;;15.96;64.68
30682;BME280;17439;48.092;11.842;2023-05-20T05:46:10;95337.88;;;16.00;64.72
30682;BME280;17439;48.092;11.842;2023-05-20T05:48:37;95330.25;;;16.05;64.97
30682;BME280;17439;48.092;11.842;2023-05-20T05:51:04;95335.09;;;16.12;65.03
30682;BME280;17439;48.092;11.842;2023-05-20T05:53:32;95330.75;;;16.11;64.54
30682;BME280;17439;48.092;11.842;2023-05-20T05:55:58;95328.88;;;16.27;64.26
30682;BME280;17439;48.092;11.842;2023-05-20T05:58:25;95330.19;;;16.33;64.34
30682;BME280;17439;48.092;11.842;2023-05-20T06:00:52;95334.59;;;16.38;63.96
30682;BME280;17439;48.092;11.842;2023-05-20T06:03:19;95326.50;;;16.42;63.87
30682;BME280;17439;48.092;11.842;2023-05-20T06:05:46;95338.75;;;16.48;63.88
30682;BME280;17439;48.092;11.842;2023-05-20T06:08:13;95333.28;;;16.48;64.00
30682;BME280;17439;48.092;11.842;2023-05-20T06:10:40;95334.91;;;16.49;63.69
30682;BME280;17439;48.092;11.842;2023-05-20T06:13:06;95339.66;;;16.52;63.61
30682;BME280;17439;48.092;11.842;2023-05-20T06:15:33;95339.31;;;16.54;63.32
30682;BME280;17439;48.092;11.842;2023-05-20T06:18:01;95337.19;;;16.47;62.20
30682;BME280;17439;48.092;11.842;2023-05-20T06:20:29;95338.97;;;16.55;63.23
30682;BME280;17439;48.092;11.842;2023-05-20T06:22:55;95337.47;;;16.58;63.09
30682;BME280;17439;48.092;11.842;2023-05-20T06:25:28;95336.22;;;16.55;63.05
30682;BME280;17439;48.092;11.842;2023-05-20T06:27:55;95330.31;;;16.53;63.02
30682;BME280;17439;48.092;11.842;2023-05-20T06:30:22;95328.72;;;16.52;62.95
30682;BME280;17439;48.092;11.842;2023-05-20T06:32:49;95329.63;;;16.56;63.23
30682;BME280;17439;48.092;11.842;2023-05-20T06:35:16;95324.16;;;16.56;63.32
30682;BME280;17439;48.092;11.842;2023-05-20T06:37:43;95313.72;;;16.62;63.81
30682;BME280;17439;48.092;11.842;2023-05-20T06:40:11;95323.59;;;16.66;63.77
30682;BME280;17439;48.092;11.842;2023-05-20T06:42:37;95314.41;;;16.75;63.53
30682;BME280;17439;48.092;11.842;2023-05-20T06:45:05;95318.06;;;16.79;63.45
30682;BME280;17439;48.092;11.842;2023-05-20T06:47:54;95324.38;;;16.83;63.22
30682;BME280;17439;48.092;11.842;2023-05-20T06:50:21;95322.66;;;16.91;63.22
30682;BME280;17439;48.092;11.842;2023-05-20T06:52:48;95320.88;;;16.98;63.14
30682;BME280;17439;48.092;11.842;2023-05-20T06:55:14;95328.47;;;17.05;63.38
30682;BME280;17439;48.092;11.842;2023-05-20T06:57:41;95320.06;;;17.14;63.40
30682;BME280;17439;48.092;11.842;2023-05-20T07:00:08;95305.38;;;17.22;63.49
30682;BME280;17439;48.092;11.842;2023-05-20T07:02:40;95309.16;;;17.33;63.44
30682;BME280;17439;48.092;11.842;2023-05-20T07:05:07;95307.00;;;17.43;63.17
30682;BME280;17439;48.092;11.842;2023-05-20T07:07:34;95305.22;;;17.50;62.56
30682;BME280;17439;48.092;11.842;2023-05-20T07:10:01;95305.81;;;17.59;62.77
30682;BME280;17439;48.092;11.842;2023-05-20T07:12:28;95307.97;;;17.70;62.90
30682;BME280;17439;48.092;11.842;2023-05-20T07:14:54;95310.94;;;17.81;62.50
30682;BME280;17439;48.092;11.842;2023-05-20T07:17:21;95302.25;;;17.94;62.32
30682;BME280;17439;48.092;11.842;2023-05-20T07:19:49;95312.41;;;18.13;60.28
30682;BME280;17439;48.092;11.842;2023-05-20T07:22:17;95298.09;;;18.24;60.02
30682;BME280;17439;48.092;11.842;2023-05-20T07:24:54;95297.88;;;18.33;60.35
30682;BME280;17439;48.092;11.842;2023-05-20T07:27:21;95301.09;;;18.38;60.62
30682;BME280;17439;48.092;11.842;2023-05-20T07:29:48;95298.97;;;18.51;61.16
30682;BME280;17439;48.092;11.842;2023-05-20T07:32:15;95301.47;;;18.60;60.30
30682;BME280;17439;48.092;11.842;2023-05-20T07:34:43;95298.53;;;18.72;61.11
30682;BME280;17439;48.092;11.842;2023-05-20T07:37:10;95292.78;;;18.81;60.63
30682;BME280;17439;48.092;11.842;2023-05-20T07:39:37;95290.25;;;18.92;60.16
30682;BME280;17439;48.092;11.842;2023-05-20T07:42:05;95277.06;;;19.01;59.99
30682;BME280;17439;48.092;11.842;2023-05-20T07:44:32;95286.53;;;19.07;59.28
30682;BME280;17439;48.092;11.842;2023-05-20T07:46:59;95283.50;;;19.12;58.70
30682;BME280;17439;48.092;11.842;2023-05-20T07:49:26;95278.84;;;19.16;58.56
30682;BME280;17439;48.092;11.842;2023-05-20T07:51:53;95274.19;;;19.20;56.78
30682;BME280;17439;48.092;11.842;2023-05-20T07:54:19;95275.34;;;19.19;56.67
30682;BME280;17439;48.092;11.842;2023-05-20T07:56:49;95279.28;;;19.18;56.79
30682;BME280;17439;48.092;11.842;2023-05-20T07:59:16;95267.47;;;19.18;56.85
30682;BME280;17439;48.092;11.842;2023-05-20T08:01:46;95276.53;;;19.18;57.13
30682;BME280;17439;48.092;11.842;2023-05-20T08:04:15;95282.47;;;19.24;56.01
30682;BME280;17439;48.092;11.842;2023-05-20T08:06:43;95279.31;;;19.22;54.87
30682;BME280;17439;48.092;11.842;2023-05-20T08:09:16;95276.00;;;19.36;53.12
30682;BME280;17439;48.092;11.842;2023-05-20T08:11:47;95278.75;;;19.36;53.63
30682;BME280;17439;48.092;11.842;2023-05-20T08:14:14;95268.13;;;19.34;54.38
30682;BME280;17439;48.092;11.842;2023-05-20T08:16:43;95268.16;;;19.38;53.78
30682;BME280;17439;48.092;11.842;2023-05-20T08:19:10;95269.34;;;19.40;53.45
30682;BME280;17439;48.092;11.842;2023-05-20T08:21:37;95266.22;;;19.42;53.34
30682;BME280;17439;48.092;11.842;2023-05-20T08:24:05;95258.84;;;19.46;52.43
30682;BME280;17439;48.092;11.842;2023-05-20T08:26:31;95260.81;;;19.46;53.35
30682;BME280;17439;48.092;11.842;2023-05-20T08:28:58;95260.06;;;19.49;54.12
30682;BME280;17439;48.092;11.842;2023-05-20T08:31:25;95263.66;;;19.56;52.80
30682;BME280;17439;48.092;11.842;2023-05-20T08:33:51;95264.91;;;19.63;53.17
30682;BME280;17439;48.092;11.842;2023-05-20T08:36:18;95256.31;;;19.64;53.48
30682;BME280;17439;48.092;11.842;2023-05-20T08:38:45;95262.31;;;19.73;53.86
30682;BME280;17439;48.092;11.842;2023-05-20T08:41:12;95259.31;;;19.82;54.01
30682;BME280;17439;48.092;11.842;2023-05-20T08:43:42;95265.72;;;19.93;53.95
30682;BME280;17439;48.092;11.842;2023-05-20T08:46:09;95261.13;;;20.05;53.01
30682;BME280;17439;48.092;11.842;2023-05-20T08:48:37;95266.25;;;20.06;54.77
30682;BME280;17439;48.092;11.842;2023-05-20T08:51:08;95258.97;;;20.25;53.80
30682;BME280;17439;48.092;11.842;2023-05-20T08:53:35;95252.47;;;20.44;51.74
30682;BME280;17439;48.092;11.842;2023-05-20T08:56:01;95248.28;;;20.57;51.09
30682;BME280;17439;48.092;11.842;2023-05-20T08:58:29;95257.41;;;20.65;52.08
30682;BME280;17439;48.092;11.842;2023-05-20T09:00:56;95259.84;;;20.74;51.61
30682;BME280;17439;48.092;11.842;2023-05-20T09:03:23;95253.97;;;20.79;51.72
30682;BME280;17439;48.092;11.842;2023-05-20T09:05:51;95250.91;;;20.91;51.44
30682;BME280;17439;48.092;11.842;2023-05-20T09:08:18;95252.50;;;20.92;52.58
30682;BME280;17439;48.092;11.842;2023-05-20T09:10:45;95247.50;;;21.09;52.09
30682;BME280;17439;48.092;11.842;2023-05-20T09:13:12;95251.53;;;21.26;52.25
30682;BME280;17439;48.092;11.842;2023-05-20T09:15:38;95251.22;;;21.38;51.94
30682;BME280;17439;48.092;11.842;2023-05-20T09:18:06;95256.84;;;21.52;52.05
30682;BME280;17439;48.092;11.842;2023-05-20T09:20:35;95256.91;;;21.67;52.37
30682;BME280;17439;48.092;11.842;2023-05-20T09:23:04;95250.66;;;21.84;48.88
30682;BME280;17439;48.092;11.842;2023-05-20T09:25:31;95257.84;;;22.03;48.93
30682;BME280;17439;48.092;11.842;2023-05-20T09:27:58;95252.72;;;22.13;48.09
30682;BME280;17439;48.092;11.842;2023-05-20T09:30:25;95255.50;;;22.23;49.30
30682;BME280;17439;48.092;11.842;2023-05-20T09:32:57;95243.72;;;22.34;48.20
30682;BME280;17439;48.092;11.842;2023-05-20T09:35:26;95239.41;;;22.43;47.50
30682;BME280;17439;48.092;11.842;2023-05-20T09:37:57;95248.88;;;22.50;46.82
30682;BME280;17439;48.092;11.842;2023-05-20T09:40:25;95250.84;;;22.60;46.78
30682;BME280;17439;48.092;11.842;2023-05-20T09:45:22;95246.09;;;22.60;46.45
30682;BME280;17439;48.092;11.842;2023-05-20T09:47:50;95244.53;;;22.63;47.27
30682;BME280;17439;48.092;11.842;2023-05-20T09:50:18;95248.50;;;22.66;47.14
30682;BME280;17439;48.092;11.842;2023-05-20T09:52:46;95238.22;;;22.70;46.51
30682;BME280;17439;48.092;11.842;2023-05-20T09:55:13;95237.44;;;22.73;46.58
30682;BME280;17439;48.092;11.842;2023-05-20T09:57:40;95237.41;;;22.76;46.87
30682;BME280;17439;48.092;11.842;2023-05-20T10:00:07;95230.31;;;22.82;46.01
30682;BME280;17439;48.092;11.842;2023-05-20T10:02:50;95229.53;;;22.78;45.67
30682;BME280;17439;48.092;11.842;2023-05-20T10:05:30;95225.56;;;22.79;46.05
30682;BME280;17439;48.092;11.842;2023-05-20T10:08:13;95223.22;;;22.81;47.04
30682;BME280;17439;48.092;11.842;2023-05-20T10:11:08;95216.50;;;22.82;46.48
30682;BME280;17439;48.092;11.842;2023-05-20T10:13:49;95208.63;;;22.88;46.15
30682;BME280;17439;48.092;11.842;2023-05-20T10:19:22;95212.16;;;22.99;45.60
30682;BME280;17439;48.092;11.842;2023-05-20T10:22:07;95218.88;;;23.16;44.84
30682;BME280;17439;48.092;11.842;2023-05-20T10:24:35;95214.09;;;23.21;45.64
30682;BME280;17439;48.092;11.842;2023-05-20T10:27:06;95206.97;;;23.27;44.50
30682;BME280;17439;48.092;11.842;2023-05-20T10:32:09;95206.16;;;23.41;46.19
30682;BME280;17439;48.092;11.842;2023-05-20T10:34:46;95193.91;;;23.45;45.36
30682;BME280;17439;48.092;11.842;2023-05-20T10:37:22;95188.31;;;23.60;45.10
30682;BME280;17439;48.092;11.842;2023-05-20T10:39:50;95184.69;;;23.70;44.63
30682;BME280;17439;48.092;11.842;2023-05-20T10:42:26;95191.00;;;23.74;43.51
30682;BME280;17439;48.092;11.842;2023-05-20T10:44:53;95182.28;;;23.86;42.22
30682;BME280;17439;48.092;11.842;2023-05-20T10:47:20;95192.13;;;23.95;42.52
30682;BME280;17439;48.092;11.842;2023-05-20T10:49:51;95186.56;;;23.98;43.32
30682;BME280;17439;48.092;11.842;2023-05-20T10:52:19;95180.19;;;24.05;41.02
30682;BME280;17439;48.092;11.842;2023-05-20T10:54:47;95184.09;;;24.11;41.91
30682;BME280;17439;48.092;11.842;2023-05-20T10:57:20;95175.72;;;24.22;41.90
30682;BME280;17439;48.092;11.842;2023-05-20T10:59:48;95179.63;;;24.32;41.13
30682;BME280;17439;48.092;11.842;2023-05-20T11:02:15;95164.13;;;24.38;40.57
30682;BME280;17439;48.092;11.842;2023-05-20T11:04:44;95164.09;;;24.41;41.22
30682;BME280;17439;48.092;11.842;2023-05-20T11:07:12;95155.34;;;24.47;41.38
30682;BME280;17439;48.092;11.842;2023-05-20T11:09:38;95168.22;;;24.75;38.19
30682;BME280;17439;48.092;11.842;2023-05-20T11:12:05;95156.38;;;24.71;39.93
30682;BME280;17439;48.092;11.842;2023-05-20T11:14:34;95161.53;;;24.72;39.36
30682;BME280;17439;48.092;11.842;2023-05-20T11:17:00;95158.75;;;24.69;39.90
30682;BME280;17439;48.092;11.842;2023-05-20T11:19:27;95153.22;;;24.69;40.68
30682;BME280;17439;48.092;11.842;2023-05-20T11:21:54;95154.34;;;24.75;39.49
30682;BME280;17439;48.092;11.842;2023-05-20T11:24:23;95153.94;;;24.76;40.02
30682;BME280;17439;48.092;11.842;2023-05-20T11:26:51;95146.34;;;24.84;39.83
30682;BME280;17439;48.092;11.842;2023-05-20T11:29:18;95146.34;;;24.84;40.36
30682;BME280;17439;48.092;11.842;2023-05-20T11:31:49;95144.75;;;24.87;40.35
30682;BME280;17439;48.092;11.842;2023-05-20T11:34:19;95142.72;;;24.91;40.39
30682;BME280;17439;48.092;11.842;2023-05-20T11:36:55;95138.34;;;24.93;40.88
30682;BME280;17439;48.092;11.842;2023-05-20T11:39:22;95128.69;;;25.05;39.13
30682;BME280;17439;48.092;11.842;2023-05-20T11:41:49;95133.06;;;25.06;40.57
30682;BME280;17439;48.092;11.842;2023-05-20T11:44:18;95132.28;;;25.06;39.68
30682;BME280;17439;48.092;11.842;2023-05-20T11:46:46;95129.88;;;25.08;39.75
30682;BME280;17439;48.092;11.842;2023-05-20T11:49:14;95126.28;;;25.11;39.94
30682;BME280;17439;48.092;11.842;2023-05-20T11:51:42;95131.31;;;25.20;38.55
30682;BME280;17439;48.092;11.842;2023-05-20T11:54:09;95124.91;;;25.30;37.08
30682;BME280;17439;48.092;11.842;2023-05-20T11:56:36;95117.28;;;25.38;36.21
30682;BME280;17439;48.092;11.842;2023-05-20T11:59:04;95125.66;;;25.30;37.62
30682;BME280;17439;48.092;11.842;2023-05-20T12:01:33;95122.34;;;25.43;36.89
30682;BME280;17439;48.092;11.842;2023-05-20T12:04:00;95116.75;;;25.46;36.71
30682;BME280;17439;48.092;11.842;2023-05-20T12:06:27;95123.00;;;25.54;35.14
30682;BME280;17439;48.092;11.842;2023-05-20T12:08:54;95115.50;;;25.51;35.59
30682;BME280;17439;48.092;11.842;2023-05-20T12:11:21;95122.34;;;25.43;37.01
30682;BME280;17439;48.092;11.842;2023-05-20T12:13:47;95122.81;;;25.38;36.34
30682;BME280;17439;48.092;11.842;2023-05-20T12:16:14;95124.38;;;25.39;36.25
30682;BME280;17439;48.092;11.842;2023-05-20T12:18:41;95121.72;;;25.31;36.80
30682;BME280;17439;48.092;11.842;2023-05-20T12:21:08;95116.59;;;25.26;36.98
30682;BME280;17439;48.092;11.842;2023-05-20T12:23:34;95114.59;;;25.27;36.67
30682;BME280;17439;48.092;11.842;2023-05-20T12:26:01;95109.47;;;25.25;37.55
30682;BME280;17439;48.092;11.842;2023-05-20T12:28:28;95117.00;;;25.25;38.00
30682;BME280;17439;48.092;11.842;2023-05-20T12:30:55;95116.19;;;25.24;38.10
30682;BME280;17439;48.092;11.842;2023-05-20T12:33:21;95126.47;;;25.27;38.31
30682;BME280;17439;48.092;11.842;2023-05-20T12:35:48;95124.53;;;25.24;39.05
30682;BME280;17439;48.092;11.842;2023-05-20T12:38:14;95108.66;;;25.28;38.63
30682;BME280;17439;48.092;11.842;2023-05-20T12:40:41;95111.81;;;25.30;39.60
30682;BME280;17439;48.092;11.842;2023-05-20T12:43:08;95121.28;;;25.33;39.59
30682;BME280;17439;48.092;11.842;2023-05-20T12:45:35;95122.44;;;25.35;40.39
30682;BME280;17439;48.092;11.842;2023-05-20T12:48:03;95115.97;;;25.46;39.50
30682;BME280;17439;48.092;11.842;2023-05-20T12:50:30;95119.06;;;25.51;39.72
30682;BME280;17439;48.092;11.842;2023-05-20T12:52:56;95113.38;;;25.62;38.37
30682;BME280;17439;48.092;11.842;2023-05-20T12:55:23;95110.88;;;25.71;37.94
30682;BME280;17439;48.092;11.842;2023-05-20T12:57:50;95108.00;;;25.79;37.23
30682;BME280;17439;48.092;11.842;2023-05-20T13:00:16;95114.34;;;25.79;38.33
30682;BME280;17439;48.092;11.842;2023-05-20T13:02:43;95109.47;;;25.87;37.55